createdAt,value
2019-03-22T00:01:16.606Z,51.57
2019-03-22T00:03:48.160Z,53.77
2019-03-22T00:06:20.053Z,56.43
2019-03-22T00:08:51.591Z,52.80
2019-03-22T00:11:23.464Z,54.80
2019-03-22T00:13:55.116Z,53.00
2019-03-22T00:16:26.778Z,53.70
2019-03-22T00:18:58.991Z,55.33
2019-03-22T00:21:30.807Z,62.77
2019-03-22T00:24:02.571Z,62.13
2019-03-22T00:26:34.210Z,63.90
2019-03-22T00:29:05.782Z,58.53
2019-03-22T00:31:37.440Z,58.40
2019-03-22T00:34:09.102Z,56.67
2019-03-22T00:36:40.635Z,62.67
2019-03-22T00:39:12.518Z,53.70
2019-03-22T00:41:44.170Z,63.70
2019-03-22T00:44:15.813Z,59.53
2019-03-22T00:46:47.692Z,59.47
2019-03-22T00:49:19.244Z,60.37
2019-03-22T00:51:50.786Z,60.63
2019-03-22T00:54:23.677Z,66.23
2019-03-22T00:56:56.770Z,62.37
2019-03-22T00:59:28.423Z,62.93
2019-03-22T01:02:00.292Z,60.83
2019-03-22T01:04:32.054Z,59.67
2019-03-22T01:07:03.707Z,66.17
2019-03-22T01:09:36.590Z,67.93
2019-03-22T01:12:09.378Z,64.23
2019-03-22T01:14:41.158Z,63.97
2019-03-22T01:17:13.837Z,63.00
2019-03-22T01:19:45.477Z,62.33
2019-03-22T01:22:17.155Z,63.93
2019-03-22T01:24:49.023Z,76.17
2019-03-22T01:27:20.778Z,63.43
2019-03-22T01:29:52.336Z,63.23
2019-03-22T01:32:23.989Z,63.33
2019-03-22T01:34:55.850Z,64.47
2019-03-22T01:37:27.508Z,57.53
2019-03-22T01:40:00.499Z,60.70
2019-03-22T01:42:32.259Z,60.83
2019-03-22T01:45:05.943Z,63.97
2019-03-22T01:47:38.010Z,57.90
2019-03-22T01:50:15.109Z,58.93
2019-03-22T01:52:47.482Z,59.60
2019-03-22T01:55:19.021Z,62.43
2019-03-22T01:57:53.666Z,60.57
2019-03-22T02:00:23.786Z,58.77
2019-03-22T02:02:55.548Z,62.93
2019-03-22T02:05:27.102Z,64.83
2019-03-22T02:07:58.561Z,60.40
2019-03-22T02:10:30.402Z,69.63
2019-03-22T02:13:02.024Z,71.77
2019-03-22T02:15:33.818Z,69.80
2019-03-22T02:18:05.695Z,73.13
2019-03-22T02:20:37.248Z,69.00
2019-03-22T02:23:09.112Z,90.43
2019-03-22T02:25:40.800Z,115.10
2019-03-22T02:28:12.614Z,78.20
2019-03-22T02:30:44.497Z,79.10
2019-03-22T02:33:16.042Z,76.07
2019-03-22T02:35:47.801Z,67.43
2019-03-22T02:38:19.484Z,62.47
2019-03-22T02:40:51.231Z,65.97
2019-03-22T02:43:22.768Z,71.50
2019-03-22T02:45:54.647Z,67.20
2019-03-22T02:48:26.297Z,69.53
2019-03-22T02:50:57.763Z,62.77
2019-03-22T02:53:29.512Z,67.03
2019-03-22T02:56:01.237Z,65.97
2019-03-22T02:58:32.918Z,75.57
2019-03-22T03:01:04.717Z,70.07
2019-03-22T03:03:36.356Z,70.63
2019-03-22T03:06:08.122Z,58.97
2019-03-22T03:08:39.870Z,65.27
2019-03-22T03:11:11.511Z,59.53
2019-03-22T03:13:43.295Z,67.20
2019-03-22T03:16:15.047Z,62.97
2019-03-22T03:18:46.908Z,71.07
2019-03-22T03:21:18.347Z,71.43
2019-03-22T03:23:50.117Z,72.83
2019-03-22T03:26:21.678Z,65.10
2019-03-22T03:28:53.225Z,62.73
2019-03-22T03:31:25.052Z,63.50
2019-03-22T03:33:56.658Z,67.30
2019-03-22T03:36:28.201Z,66.07
2019-03-22T03:38:59.852Z,69.00
2019-03-22T03:41:31.595Z,73.53
2019-03-22T03:44:03.382Z,65.17
2019-03-22T03:46:35.033Z,67.03
2019-03-22T03:49:06.996Z,62.67
2019-03-22T03:51:38.551Z,66.83
2019-03-22T03:54:10.403Z,60.47
2019-03-22T03:56:42.075Z,66.87
2019-03-22T03:59:13.560Z,69.90
2019-03-22T04:01:45.284Z,75.00
2019-03-22T04:04:17.052Z,74.17
2019-03-22T04:06:48.494Z,66.33
2019-03-22T04:09:20.352Z,64.80
2019-03-22T04:11:52.010Z,64.67
2019-03-22T04:14:23.681Z,63.33
2019-03-22T04:16:55.030Z,65.43
2019-03-22T04:19:26.776Z,61.33
2019-03-22T04:21:58.450Z,63.40
2019-03-22T04:24:29.985Z,65.30
2019-03-22T04:27:01.648Z,65.23
2019-03-22T04:29:33.423Z,60.53
2019-03-22T04:32:04.988Z,62.80
2019-03-22T04:34:36.518Z,60.73
2019-03-22T04:37:08.397Z,61.73
2019-03-22T04:39:39.851Z,60.53
2019-03-22T04:42:11.701Z,62.60
2019-03-22T04:44:43.475Z,63.47
2019-03-22T04:47:15.442Z,62.43
2019-03-22T04:49:47.283Z,58.83
2019-03-22T04:52:19.573Z,57.33
2019-03-22T04:54:51.022Z,58.97
2019-03-22T04:57:22.563Z,54.57
2019-03-22T04:59:54.321Z,57.50
2019-03-22T05:02:25.991Z,55.57
2019-03-22T05:04:57.551Z,59.30
2019-03-22T05:07:29.303Z,60.10
2019-03-22T05:10:00.964Z,54.70
2019-03-22T05:12:32.836Z,63.27
2019-03-22T05:15:06.535Z,56.70
2019-03-22T05:17:38.034Z,58.52
2019-03-22T05:20:09.837Z,60.33
2019-03-22T05:22:41.601Z,61.05
2019-03-22T05:25:13.072Z,62.05
2019-03-22T05:27:44.812Z,66.40
2019-03-22T05:30:51.916Z,62.50
2019-03-22T05:33:23.552Z,69.22
2019-03-22T05:35:55.208Z,71.45
2019-03-22T05:38:27.170Z,67.37
2019-03-22T05:40:59.015Z,70.75
2019-03-22T05:43:30.370Z,71.77
2019-03-22T05:46:02.229Z,66.05
2019-03-22T05:48:33.801Z,67.08
2019-03-22T05:51:05.852Z,61.18
2019-03-22T05:53:37.408Z,63.17
2019-03-22T05:56:10.408Z,68.05
2019-03-22T05:58:42.071Z,65.30
2019-03-22T06:01:13.828Z,61.28
2019-03-22T06:03:45.280Z,60.40
2019-03-22T06:06:16.936Z,56.58
2019-03-22T06:08:48.420Z,57.53
2019-03-22T06:11:20.250Z,60.48
2019-03-22T06:13:52.067Z,60.40
2019-03-22T06:16:23.773Z,59.60
2019-03-22T06:18:55.409Z,58.25
2019-03-22T06:21:27.093Z,55.70
2019-03-22T06:23:58.829Z,58.78
2019-03-22T06:26:30.705Z,57.78
2019-03-22T06:29:02.058Z,56.88
2019-03-22T06:31:33.715Z,62.03
2019-03-22T06:34:05.630Z,57.98
2019-03-22T06:36:37.334Z,63.10
2019-03-22T06:39:09.097Z,56.73
2019-03-22T06:41:40.649Z,55.92
2019-03-22T06:44:12.511Z,60.05
2019-03-22T06:46:44.153Z,52.73
2019-03-22T06:49:15.726Z,57.45
2019-03-22T06:51:47.591Z,52.25
2019-03-22T06:54:30.724Z,57.13
2019-03-22T06:56:52.341Z,58.02
2019-03-22T06:59:24.102Z,56.65
2019-03-22T07:01:55.860Z,60.75
2019-03-22T07:04:27.923Z,54.10
2019-03-22T07:06:59.669Z,55.50
2019-03-22T07:09:31.546Z,52.80
2019-03-22T07:12:03.204Z,52.60
2019-03-22T07:14:35.579Z,53.92
2019-03-22T07:17:07.033Z,47.35
2019-03-22T07:19:39.794Z,47.25
2019-03-22T07:22:12.797Z,50.38
2019-03-22T07:24:44.455Z,48.23
2019-03-22T07:27:16.093Z,46.68
2019-03-22T07:29:47.978Z,42.25
2019-03-22T07:32:21.166Z,43.98
2019-03-22T07:34:52.718Z,39.45
2019-03-22T07:37:24.264Z,38.80
2019-03-22T07:39:55.974Z,37.58
2019-03-22T07:42:27.681Z,40.17
2019-03-22T07:44:59.046Z,42.53
2019-03-22T07:47:30.791Z,38.08
2019-03-22T07:50:05.332Z,43.30
2019-03-22T07:52:36.707Z,42.85
2019-03-22T07:55:08.399Z,38.88
2019-03-22T07:57:40.079Z,31.40
2019-03-22T08:00:13.009Z,34.75
2019-03-22T08:02:44.437Z,38.83
2019-03-22T08:05:15.977Z,40.63
2019-03-22T08:07:47.644Z,39.00
2019-03-22T08:10:19.411Z,38.13
2019-03-22T08:12:51.053Z,36.03
2019-03-22T08:15:28.256Z,38.30
2019-03-22T08:18:00.116Z,33.50
2019-03-22T08:20:31.990Z,37.10
2019-03-22T08:23:04.838Z,32.63
2019-03-22T08:25:36.532Z,36.90
2019-03-22T08:28:07.949Z,34.10
2019-03-22T08:30:43.200Z,31.77
2019-03-22T08:33:13.227Z,22.02
2019-03-22T08:35:44.971Z,23.05
2019-03-22T08:38:17.657Z,23.02
2019-03-22T08:40:49.331Z,31.82
2019-03-22T08:43:21.065Z,26.00
2019-03-22T08:45:52.724Z,27.82
2019-03-22T08:48:24.517Z,26.42
2019-03-22T08:50:56.081Z,21.57
2019-03-22T08:53:27.820Z,18.92
2019-03-22T08:55:59.460Z,21.15
2019-03-22T08:58:31.130Z,17.82
2019-03-22T09:01:02.934Z,19.60
2019-03-22T09:03:34.546Z,23.38
2019-03-22T09:06:07.856Z,15.65
2019-03-22T09:08:39.515Z,17.10
2019-03-22T09:11:11.153Z,17.45
2019-03-22T09:13:42.911Z,19.75
2019-03-22T09:16:14.575Z,16.60
2019-03-22T09:18:47.455Z,17.12
2019-03-22T09:21:19.203Z,16.00
2019-03-22T09:23:50.979Z,14.45
2019-03-22T09:26:22.670Z,21.12
2019-03-22T09:28:54.185Z,17.52
2019-03-22T09:31:25.658Z,22.75
2019-03-22T09:33:57.421Z,24.40
2019-03-22T09:36:29.128Z,20.70
2019-03-22T09:39:00.928Z,22.45
2019-03-22T09:41:32.870Z,19.52
2019-03-22T09:44:05.875Z,24.50
2019-03-22T09:46:37.643Z,22.07
2019-03-22T09:49:09.539Z,25.08
2019-03-22T09:51:41.041Z,23.20
2019-03-22T09:54:12.722Z,26.87
2019-03-22T09:56:47.262Z,24.20
2019-03-22T09:59:17.885Z,24.25
2019-03-22T10:01:49.905Z,25.05
2019-03-22T10:04:21.546Z,26.95
2019-03-22T10:06:53.286Z,31.27
2019-03-22T10:09:24.970Z,30.57
2019-03-22T10:11:56.443Z,29.50
2019-03-22T10:14:31.223Z,26.35
2019-03-22T10:17:01.191Z,31.55
2019-03-22T10:19:32.934Z,24.52
2019-03-22T10:22:04.532Z,24.63
2019-03-22T10:24:36.296Z,32.85
2019-03-22T10:27:07.942Z,29.07
2019-03-22T10:29:39.401Z,32.78
2019-03-22T10:32:11.463Z,30.77
2019-03-22T10:34:42.947Z,34.23
2019-03-22T10:37:15.453Z,26.02
2019-03-22T10:39:47.039Z,26.73
2019-03-22T10:42:19.068Z,40.00
2019-03-22T10:44:50.594Z,50.78
2019-03-22T10:47:22.165Z,36.28
2019-03-22T10:49:54.913Z,31.65
2019-03-22T10:52:26.657Z,36.25
2019-03-22T10:55:07.875Z,29.75
2019-03-22T10:57:31.827Z,31.50
2019-03-22T11:00:05.341Z,33.83
2019-03-22T11:02:36.975Z,48.58
2019-03-22T11:05:08.432Z,38.17
2019-03-22T11:07:40.206Z,36.20
2019-03-22T11:10:13.680Z,43.10
2019-03-22T11:12:45.140Z,37.30
2019-03-22T11:15:16.614Z,31.45
2019-03-22T11:17:48.266Z,22.75
2019-03-22T11:20:20.116Z,20.32
2019-03-22T11:22:51.785Z,18.67
2019-03-22T11:25:23.327Z,15.45
2019-03-22T11:27:54.774Z,19.20
2019-03-22T11:30:26.658Z,18.92
2019-03-22T11:32:58.217Z,18.92
2019-03-22T11:35:29.972Z,22.73
2019-03-22T11:38:01.413Z,22.35
2019-03-22T11:40:33.086Z,20.12
2019-03-22T11:43:08.821Z,21.68
2019-03-22T11:45:38.139Z,21.45
2019-03-22T11:48:09.982Z,27.22
2019-03-22T11:50:41.542Z,26.02
2019-03-22T11:53:13.210Z,21.15
2019-03-22T11:55:45.073Z,30.55
2019-03-22T11:58:16.730Z,26.40
2019-03-22T12:00:51.661Z,26.65
2019-03-22T12:03:23.321Z,29.98
2019-03-22T12:05:54.979Z,29.20
2019-03-22T12:08:26.820Z,23.40
2019-03-22T12:10:58.496Z,22.82
2019-03-22T12:13:30.969Z,23.05
2019-03-22T12:16:02.730Z,24.43
2019-03-22T12:18:35.407Z,22.62
2019-03-22T12:21:06.864Z,22.50
2019-03-22T12:23:38.619Z,21.37
2019-03-22T12:26:11.595Z,23.18
2019-03-22T12:28:43.475Z,24.70
2019-03-22T12:31:15.132Z,20.90
2019-03-22T12:33:46.783Z,22.10
2019-03-22T12:36:18.748Z,15.38
2019-03-22T12:38:50.201Z,20.43
2019-03-22T12:41:22.060Z,19.55
2019-03-22T12:43:53.718Z,23.25
2019-03-22T12:46:25.278Z,20.90
2019-03-22T12:48:57.142Z,21.50
2019-03-22T12:51:28.895Z,23.20
2019-03-22T12:54:00.759Z,22.65
2019-03-22T12:56:32.401Z,22.60
2019-03-22T12:59:04.079Z,23.70
2019-03-22T13:01:36.140Z,25.52
2019-03-22T13:04:08.494Z,30.37
2019-03-22T13:06:40.359Z,24.27
2019-03-22T13:09:11.915Z,24.60
2019-03-22T13:11:43.486Z,26.40
2019-03-22T13:14:15.350Z,27.82
2019-03-22T13:16:46.799Z,27.35
2019-03-22T13:19:18.543Z,25.50
2019-03-22T13:21:50.423Z,31.45
2019-03-22T13:24:21.978Z,31.85
2019-03-22T13:26:53.841Z,27.70
2019-03-22T13:29:25.596Z,20.90
2019-03-22T13:31:57.361Z,31.05
2019-03-22T13:34:28.912Z,26.40
2019-03-22T13:37:00.449Z,23.05
2019-03-22T13:39:32.330Z,27.27
2019-03-22T13:42:03.986Z,22.50
2019-03-22T13:44:35.942Z,24.55
2019-03-22T13:47:07.404Z,30.92
2019-03-22T13:49:38.954Z,30.45
2019-03-22T13:52:10.515Z,22.70
2019-03-22T13:54:42.872Z,23.55
2019-03-22T13:57:14.659Z,25.23
2019-03-22T13:59:46.213Z,22.65
2019-03-22T14:02:17.850Z,30.00
2019-03-22T14:04:49.624Z,28.87
2019-03-22T14:07:21.254Z,32.30
2019-03-22T14:09:53.138Z,29.30
2019-03-22T14:12:24.882Z,32.80
2019-03-22T14:14:56.960Z,28.00
2019-03-22T14:17:28.703Z,30.80
2019-03-22T14:20:10.450Z,34.10
2019-03-22T14:22:33.464Z,29.40
2019-03-22T14:25:06.251Z,32.95
2019-03-22T14:27:37.989Z,34.27
2019-03-22T14:30:09.752Z,36.90
2019-03-22T14:32:41.320Z,33.08
2019-03-22T14:35:12.962Z,31.60
2019-03-22T14:37:44.432Z,28.87
2019-03-22T14:40:16.087Z,29.75
2019-03-22T14:42:47.934Z,34.45
2019-03-22T14:45:19.692Z,35.63
2019-03-22T14:47:51.571Z,33.88
2019-03-22T14:50:23.228Z,31.50
2019-03-22T14:52:55.094Z,32.45
2019-03-22T14:55:26.544Z,33.25
2019-03-22T14:57:58.395Z,31.30
2019-03-22T15:00:30.205Z,34.18
2019-03-22T15:03:01.736Z,32.30
2019-03-22T15:05:36.553Z,35.65
2019-03-22T15:08:10.098Z,35.13
2019-03-22T15:10:41.916Z,41.50
2019-03-22T15:13:14.496Z,40.85
2019-03-22T15:16:05.812Z,41.00
2019-03-22T15:18:50.987Z,43.35
2019-03-22T15:21:24.079Z,53.00
2019-03-22T15:24:06.280Z,53.47
2019-03-22T15:26:44.157Z,45.58
2019-03-22T15:29:38.475Z,40.28
2019-03-22T15:32:40.314Z,38.88
2019-03-22T15:35:16.414Z,41.30
2019-03-22T15:37:59.621Z,41.02
2019-03-22T15:40:31.173Z,39.03
2019-03-22T15:43:04.062Z,40.48
2019-03-22T15:45:35.510Z,42.27
2019-03-22T15:48:07.375Z,39.88
2019-03-22T15:50:38.932Z,39.58
2019-03-22T15:53:11.850Z,39.58
2019-03-22T15:55:43.265Z,37.78
2019-03-22T15:58:15.007Z,43.00
2019-03-22T16:00:46.672Z,41.08
2019-03-22T16:03:18.535Z,38.63
2019-03-22T16:05:50.086Z,37.45
2019-03-22T16:08:21.531Z,35.75
2019-03-22T16:10:54.250Z,39.70
2019-03-22T16:13:26.847Z,41.18
2019-03-22T16:15:58.369Z,45.95
2019-03-22T16:30:40.646Z,12.65
2019-03-22T16:33:12.560Z,6.45
2019-03-22T16:35:44.157Z,11.83
2019-03-22T16:38:15.809Z,13.60
2019-03-22T16:40:47.460Z,19.40
2019-03-22T16:43:20.439Z,15.80
2019-03-22T16:45:51.772Z,18.42
2019-03-22T16:48:23.453Z,21.80
2019-03-22T16:50:56.354Z,20.35
2019-03-22T16:53:28.260Z,27.02
2019-03-22T16:56:01.918Z,23.92
2019-03-22T16:58:33.567Z,27.87
2019-03-22T17:01:06.462Z,20.48
2019-03-22T17:03:37.891Z,19.07
2019-03-22T17:06:09.671Z,20.32
2019-03-22T17:08:41.079Z,18.35
2019-03-22T17:11:12.841Z,19.05
2019-03-22T17:13:44.637Z,11.38
2019-03-22T17:16:16.184Z,13.20
2019-03-22T17:18:47.953Z,23.15
2019-03-22T17:21:19.287Z,26.80
2019-03-22T17:23:51.267Z,21.07
2019-03-22T17:26:22.831Z,23.60
2019-03-22T17:28:54.467Z,26.35
2019-03-22T17:31:26.341Z,18.02
2019-03-22T17:33:58.392Z,21.02
2019-03-22T17:36:29.870Z,26.82
2019-03-22T17:39:01.927Z,17.60
2019-03-22T17:41:34.494Z,22.20
2019-03-22T17:44:06.262Z,19.87
2019-03-22T17:46:37.816Z,16.67
2019-03-22T17:49:09.815Z,15.43
2019-03-22T17:51:41.335Z,15.03
2019-03-22T17:54:13.196Z,13.83
2019-03-22T17:56:44.735Z,16.15
2019-03-22T17:59:16.508Z,11.95
2019-03-22T18:01:48.524Z,15.78
2019-03-22T18:04:24.078Z,12.23
2019-03-22T18:06:53.222Z,11.88
2019-03-22T18:09:25.049Z,12.90
2019-03-22T18:11:56.522Z,13.53
2019-03-22T18:14:28.582Z,12.98
2019-03-22T18:17:00.031Z,15.13
2019-03-22T18:19:33.139Z,13.08
2019-03-22T18:22:04.692Z,11.60
2019-03-22T18:24:36.542Z,10.28
2019-03-22T18:27:08.127Z,9.83
2019-03-22T18:29:40.010Z,8.83
2019-03-22T18:32:12.450Z,11.25
2019-03-22T18:34:44.217Z,10.30
2019-03-22T18:37:16.078Z,13.98
2019-03-22T18:39:48.139Z,11.12
2019-03-22T18:42:19.700Z,7.25
2019-03-22T18:44:51.142Z,8.48
2019-03-22T18:47:22.820Z,11.80
2019-03-22T18:49:55.068Z,14.13
2019-03-22T18:52:26.837Z,13.85
2019-03-22T18:54:58.695Z,11.90
2019-03-22T18:57:30.234Z,14.58
2019-03-22T19:00:02.411Z,15.40
2019-03-22T19:02:34.284Z,20.12
2019-03-22T19:05:07.971Z,15.17
2019-03-22T19:10:12.479Z,16.00
2019-03-22T19:12:44.091Z,20.37
2019-03-22T19:15:15.972Z,19.10
2019-03-22T19:17:47.386Z,24.30
2019-03-22T19:20:20.896Z,20.37
2019-03-22T19:22:52.560Z,19.00
2019-03-22T19:25:24.401Z,21.40
2019-03-22T19:27:56.077Z,24.30
2019-03-22T19:30:27.690Z,18.33
2019-03-22T19:32:59.470Z,16.23
2019-03-22T19:35:32.902Z,11.87
2019-03-22T19:38:04.730Z,13.62
2019-03-22T19:40:36.203Z,11.53
2019-03-22T19:43:08.161Z,11.80
2019-03-22T19:45:39.611Z,11.33
2019-03-22T19:48:12.544Z,10.95
2019-03-22T19:50:44.341Z,10.85
2019-03-22T19:53:16.204Z,11.75
2019-03-22T19:55:47.817Z,16.07
2019-03-22T19:58:19.250Z,14.58
2019-03-22T20:00:50.976Z,14.40
2019-03-22T20:03:22.527Z,11.33
2019-03-22T20:05:54.219Z,12.63
2019-03-22T20:08:25.934Z,13.53
2019-03-22T20:10:57.636Z,17.73
2019-03-22T20:13:29.285Z,16.05
2019-03-22T20:16:01.045Z,16.02
2019-03-22T20:18:32.801Z,15.13
2019-03-22T20:21:04.561Z,18.82
2019-03-22T20:23:36.219Z,19.40
2019-03-22T20:26:07.982Z,15.50
2019-03-22T20:28:39.736Z,19.75
2019-03-22T20:31:11.513Z,16.80
2019-03-22T20:33:43.456Z,14.33
2019-03-22T20:36:15.351Z,17.23
2019-03-22T20:38:46.968Z,17.80
2019-03-22T20:41:19.038Z,17.95
2019-03-22T20:43:50.490Z,17.35
2019-03-22T20:46:22.352Z,18.17
2019-03-22T20:48:53.912Z,19.33
2019-03-22T20:51:25.775Z,21.53
2019-03-22T20:53:57.432Z,20.57
2019-03-22T20:56:29.187Z,17.67
2019-03-22T20:59:00.632Z,17.97
2019-03-22T21:01:32.230Z,19.13
2019-03-22T21:04:03.990Z,20.00
2019-03-22T21:06:36.067Z,25.33
2019-03-22T21:09:07.741Z,21.37
2019-03-22T21:11:39.349Z,19.13
2019-03-22T21:14:10.795Z,24.47
2019-03-22T21:16:42.519Z,25.77
2019-03-22T21:19:14.345Z,25.57
2019-03-22T21:21:45.734Z,28.37
2019-03-22T21:24:17.616Z,31.23
2019-03-22T21:26:49.373Z,29.73
2019-03-22T21:29:22.055Z,27.27
2019-03-22T21:31:53.812Z,28.23
2019-03-22T21:34:25.672Z,29.17
2019-03-22T21:36:57.129Z,24.17
2019-03-22T21:39:30.633Z,23.80
2019-03-22T21:42:02.600Z,20.27
2019-03-22T21:44:34.131Z,18.37
2019-03-22T21:47:05.973Z,18.50
2019-03-22T21:49:37.763Z,20.07
2019-03-22T21:52:10.018Z,20.83
2019-03-22T21:54:41.496Z,24.47
2019-03-22T21:57:13.140Z,25.53
2019-03-22T21:59:44.701Z,25.90
2019-03-22T22:02:16.494Z,25.80
2019-03-22T22:04:48.880Z,25.07
2019-03-22T22:07:20.487Z,26.30
2019-03-22T22:09:52.141Z,26.83
2019-03-22T22:12:24.003Z,30.23
2019-03-22T22:14:55.755Z,27.07
2019-03-22T22:17:27.400Z,26.23
2019-03-22T22:19:59.102Z,20.30
2019-03-22T22:22:30.508Z,17.83
2019-03-22T22:25:02.067Z,23.47
2019-03-22T22:27:33.737Z,22.80
2019-03-22T22:30:10.655Z,27.23
2019-03-22T22:32:42.968Z,28.03
2019-03-22T22:35:14.420Z,25.00
2019-03-22T22:37:47.839Z,23.97
2019-03-22T22:40:19.595Z,27.23
2019-03-22T22:42:51.232Z,29.43
2019-03-22T22:45:22.707Z,24.67
2019-03-22T22:47:54.459Z,29.40
2019-03-22T22:50:26.095Z,27.47
2019-03-22T22:52:57.560Z,32.73
2019-03-22T22:55:29.331Z,35.10
2019-03-22T22:58:00.987Z,31.17
2019-03-22T23:00:33.040Z,34.03
2019-03-22T23:03:04.912Z,45.23
2019-03-22T23:05:37.067Z,48.23
2019-03-22T23:08:08.438Z,44.87
2019-03-22T23:10:41.903Z,42.07
2019-03-22T23:13:13.487Z,43.53
2019-03-22T23:15:44.920Z,48.60
2019-03-22T23:18:16.399Z,46.70
2019-03-22T23:20:47.828Z,48.00
2019-03-22T23:23:19.504Z,47.70
2019-03-22T23:25:51.367Z,49.97
2019-03-22T23:28:22.797Z,51.53
2019-03-22T23:30:55.379Z,46.30
2019-03-22T23:33:27.052Z,54.67
2019-03-22T23:35:58.899Z,55.57
2019-03-22T23:38:31.909Z,55.67
2019-03-22T23:41:03.459Z,53.47
2019-03-22T23:43:35.014Z,54.73
2019-03-22T23:46:06.684Z,60.50
2019-03-22T23:48:38.432Z,65.97
2019-03-22T23:51:10.088Z,67.13
2019-03-22T23:53:41.544Z,90.00
2019-03-22T23:56:14.531Z,90.93
2019-03-22T23:58:46.272Z,94.47
